sensor_id;sensor_type;location;lat;lon;timestamp;temperature;humidity
40622;DHT22;26324;52.040;11.528;2022-12-05T00:00:34;1.80;93.30
40622;DHT22;26324;52.040;11.528;2022-12-05T00:03:04;1.80;93.50
40622;DHT22;26324;52.040;11.528;2022-12-05T00:05:29;1.80;93.50
40622;DHT22;26324;52.040;11.528;2022-12-05T00:07:55;1.90;93.60
40622;DHT22;26324;52.040;11.528;2022-12-05T00:10:21;1.90;93.70
40622;DHT22;26324;52.040;11.528;2022-12-05T00:12:47;2.00;93.60
40622;DHT22;26324;52.040;11.528;2022-12-05T00:15:12;2.00;93.50
40622;DHT22;26324;52.040;11.528;2022-12-05T00:17:39;1.90;93.50
40622;DHT22;26324;52.040;11.528;2022-12-05T00:20:07;1.90;93.60
40622;DHT22;26324;52.040;11.528;2022-12-05T00:22:36;2.00;93.70
40622;DHT22;26324;52.040;11.528;2022-12-05T00:25:06;2.00;93.70
40622;DHT22;26324;52.040;11.528;2022-12-05T00:27:32;2.00;93.60
40622;DHT22;26324;52.040;11.528;2022-12-05T00:29:58;2.00;93.50
40622;DHT22;26324;52.040;11.528;2022-12-05T00:32:24;2.00;93.50
40622;DHT22;26324;52.040;11.528;2022-12-05T00:34:49;1.90;93.50
40622;DHT22;26324;52.040;11.528;2022-12-05T00:37:15;1.90;93.60
40622;DHT22;26324;52.040;11.528;2022-12-05T00:39:40;2.00;93.80
40622;DHT22;26324;52.040;11.528;2022-12-05T00:42:06;2.00;93.70
40622;DHT22;26324;52.040;11.528;2022-12-05T00:44:31;2.00;93.60
40622;DHT22;26324;52.040;11.528;2022-12-05T00:46:57;2.00;93.60
40622;DHT22;26324;52.040;11.528;2022-12-05T00:49:23;2.00;93.60
40622;DHT22;26324;52.040;11.528;2022-12-05T00:51:48;2.10;93.60
40622;DHT22;26324;52.040;11.528;2022-12-05T00:54:14;2.10;93.50
40622;DHT22;26324;52.040;11.528;2022-12-05T00:56:40;2.10;93.40
40622;DHT22;26324;52.040;11.528;2022-12-05T00:59:07;2.10;93.40
40622;DHT22;26324;52.040;11.528;2022-12-05T01:01:33;2.10;93.40
40622;DHT22;26324;52.040;11.528;2022-12-05T01:04:02;2.10;93.40
40622;DHT22;26324;52.040;11.528;2022-12-05T01:06:28;2.10;93.30
40622;DHT22;26324;52.040;11.528;2022-12-05T01:08:54;2.00;93.30
40622;DHT22;26324;52.040;11.528;2022-12-05T01:11:21;2.10;93.40
40622;DHT22;26324;52.040;11.528;2022-12-05T01:13:48;2.10;93.40
40622;DHT22;26324;52.040;11.528;2022-12-05T01:16:31;2.10;93.30
40622;DHT22;26324;52.040;11.528;2022-12-05T01:18:58;2.10;93.30
40622;DHT22;26324;52.040;11.528;2022-12-05T01:21:25;2.10;93.40
40622;DHT22;26324;52.040;11.528;2022-12-05T01:23:51;2.10;93.40
40622;DHT22;26324;52.040;11.528;2022-12-05T01:26:18;2.10;93.40
40622;DHT22;26324;52.040;11.528;2022-12-05T01:28:45;2.10;93.30
40622;DHT22;26324;52.040;11.528;2022-12-05T01:31:30;2.10;93.30
40622;DHT22;26324;52.040;11.528;2022-12-05T01:33:59;2.20;93.30
40622;DHT22;26324;52.040;11.528;2022-12-05T01:36:25;2.20;93.40
40622;DHT22;26324;52.040;11.528;2022-12-05T01:38:52;2.10;93.30
40622;DHT22;26324;52.040;11.528;2022-12-05T01:41:22;2.10;93.30
40622;DHT22;26324;52.040;11.528;2022-12-05T01:46:51;2.10;93.30
40622;DHT22;26324;52.040;11.528;2022-12-05T01:49:39;2.10;93.40
40622;DHT22;26324;52.040;11.528;2022-12-05T01:52:09;2.10;93.30
40622;DHT22;26324;52.040;11.528;2022-12-05T01:54:37;2.20;93.40
40622;DHT22;26324;52.040;11.528;2022-12-05T01:57:07;2.20;93.40
40622;DHT22;26324;52.040;11.528;2022-12-05T01:59:36;2.20;93.30
40622;DHT22;26324;52.040;11.528;2022-12-05T02:02:04;2.20;93.30
40622;DHT22;26324;52.040;11.528;2022-12-05T02:04:36;2.20;93.30
40622;DHT22;26324;52.040;11.528;2022-12-05T02:07:02;2.20;93.30
40622;DHT22;26324;52.040;11.528;2022-12-05T02:09:28;2.20;93.30
40622;DHT22;26324;52.040;11.528;2022-12-05T02:11:57;2.20;93.30
40622;DHT22;26324;52.040;11.528;2022-12-05T02:34:00;2.20;93.30
40622;DHT22;26324;52.040;11.528;2022-12-05T02:42:44;2.30;93.30
40622;DHT22;26324;52.040;11.528;2022-12-05T02:45:14;2.30;93.30
40622;DHT22;26324;52.040;11.528;2022-12-05T02:47:47;2.30;93.20
40622;DHT22;26324;52.040;11.528;2022-12-05T02:50:18;2.30;93.20
40622;DHT22;26324;52.040;11.528;2022-12-05T02:52:46;2.30;93.20
40622;DHT22;26324;52.040;11.528;2022-12-05T02:55:14;2.30;93.20
40622;DHT22;26324;52.040;11.528;2022-12-05T02:57:44;2.30;93.20
40622;DHT22;26324;52.040;11.528;2022-12-05T03:00:11;2.30;93.10
40622;DHT22;26324;52.040;11.528;2022-12-05T03:02:40;2.20;93.10
40622;DHT22;26324;52.040;11.528;2022-12-05T03:05:38;2.20;93.20
40622;DHT22;26324;52.040;11.528;2022-12-05T03:08:07;2.10;93.10
40622;DHT22;26324;52.040;11.528;2022-12-05T03:10:38;2.10;93.20
40622;DHT22;26324;52.040;11.528;2022-12-05T03:13:08;2.10;93.30
40622;DHT22;26324;52.040;11.528;2022-12-05T03:15:41;2.20;93.30
40622;DHT22;26324;52.040;11.528;2022-12-05T03:18:32;2.10;93.20
40622;DHT22;26324;52.040;11.528;2022-12-05T03:21:13;2.10;93.30
40622;DHT22;26324;52.040;11.528;2022-12-05T03:23:50;2.10;93.30
40622;DHT22;26324;52.040;11.528;2022-12-05T03:26:35;2.10;93.20
40622;DHT22;26324;52.040;11.528;2022-12-05T03:37:42;2.00;93.20
40622;DHT22;26324;52.040;11.528;2022-12-05T03:40:30;2.00;93.30
40622;DHT22;26324;52.040;11.528;2022-12-05T03:43:04;2.00;93.30
40622;DHT22;26324;52.040;11.528;2022-12-05T03:48:51;1.90;93.40
40622;DHT22;26324;52.040;11.528;2022-12-05T03:51:22;1.90;93.30
40622;DHT22;26324;52.040;11.528;2022-12-05T03:54:01;1.90;93.40
40622;DHT22;26324;52.040;11.528;2022-12-05T03:56:43;1.90;93.50
40622;DHT22;26324;52.040;11.528;2022-12-05T04:01:44;1.90;93.30
40622;DHT22;26324;52.040;11.528;2022-12-05T04:04:15;1.90;93.40
40622;DHT22;26324;52.040;11.528;2022-12-05T04:06:44;1.90;93.30
40622;DHT22;26324;52.040;11.528;2022-12-05T04:09:21;1.90;93.40
40622;DHT22;26324;52.040;11.528;2022-12-05T04:11:52;1.90;93.30
40622;DHT22;26324;52.040;11.528;2022-12-05T04:14:47;1.90;93.30
40622;DHT22;26324;52.040;11.528;2022-12-05T04:22:54;1.80;93.20
40622;DHT22;26324;52.040;11.528;2022-12-05T04:25:20;1.80;93.20
40622;DHT22;26324;52.040;11.528;2022-12-05T04:28:26;1.80;93.20
40622;DHT22;26324;52.040;11.528;2022-12-05T04:33:39;1.70;93.20
40622;DHT22;26324;52.040;11.528;2022-12-05T04:36:11;1.70;93.20
40622;DHT22;26324;52.040;11.528;2022-12-05T04:38:49;1.70;93.20
40622;DHT22;26324;52.040;11.528;2022-12-05T04:41:20;1.70;93.20
40622;DHT22;26324;52.040;11.528;2022-12-05T04:43:48;1.60;93.20
40622;DHT22;26324;52.040;11.528;2022-12-05T04:46:16;1.70;93.20
40622;DHT22;26324;52.040;11.528;2022-12-05T04:48:46;1.70;93.20
40622;DHT22;26324;52.040;11.528;2022-12-05T04:51:17;1.60;93.20
40622;DHT22;26324;52.040;11.528;2022-12-05T04:53:45;1.70;93.20
40622;DHT22;26324;52.040;11.528;2022-12-05T04:56:15;1.70;93.20
40622;DHT22;26324;52.040;11.528;2022-12-05T04:58:43;1.70;93.10
40622;DHT22;26324;52.040;11.528;2022-12-05T05:01:26;1.70;93.10
40622;DHT22;26324;52.040;11.528;2022-12-05T05:04:16;1.70;93.10
40622;DHT22;26324;52.040;11.528;2022-12-05T05:06:43;1.70;93.10
40622;DHT22;26324;52.040;11.528;2022-12-05T05:09:09;1.70;93.20
40622;DHT22;26324;52.040;11.528;2022-12-05T05:11:35;1.80;93.30
40622;DHT22;26324;52.040;11.528;2022-12-05T05:14:01;1.70;93.20
40622;DHT22;26324;52.040;11.528;2022-12-05T05:16:35;1.80;93.30
40622;DHT22;26324;52.040;11.528;2022-12-05T05:19:01;1.80;93.20
40622;DHT22;26324;52.040;11.528;2022-12-05T05:21:30;1.80;93.30
40622;DHT22;26324;52.040;11.528;2022-12-05T05:23:56;1.80;93.30
40622;DHT22;26324;52.040;11.528;2022-12-05T05:26:23;1.80;93.30
40622;DHT22;26324;52.040;11.528;2022-12-05T05:28:50;1.80;93.30
40622;DHT22;26324;52.040;11.528;2022-12-05T05:31:17;1.90;93.30
40622;DHT22;26324;52.040;11.528;2022-12-05T05:33:42;2.00;93.30
40622;DHT22;26324;52.040;11.528;2022-12-05T05:36:11;1.90;93.30
40622;DHT22;26324;52.040;11.528;2022-12-05T05:38:41;2.00;93.30
40622;DHT22;26324;52.040;11.528;2022-12-05T05:41:12;2.00;93.20
40622;DHT22;26324;52.040;11.528;2022-12-05T05:43:39;2.00;93.20
40622;DHT22;26324;52.040;11.528;2022-12-05T05:46:05;1.90;93.20
40622;DHT22;26324;52.040;11.528;2022-12-05T05:48:30;2.00;93.20
40622;DHT22;26324;52.040;11.528;2022-12-05T05:51:01;2.00;93.30
40622;DHT22;26324;52.040;11.528;2022-12-05T05:53:27;2.00;93.20
40622;DHT22;26324;52.040;11.528;2022-12-05T05:55:52;2.00;93.20
40622;DHT22;26324;52.040;11.528;2022-12-05T05:58:18;2.10;93.20
40622;DHT22;26324;52.040;11.528;2022-12-05T06:00:43;2.10;93.20
40622;DHT22;26324;52.040;11.528;2022-12-05T06:03:09;2.10;93.10
40622;DHT22;26324;52.040;11.528;2022-12-05T06:05:35;2.10;93.10
40622;DHT22;26324;52.040;11.528;2022-12-05T06:08:00;2.10;93.10
40622;DHT22;26324;52.040;11.528;2022-12-05T06:10:26;2.10;93.10
40622;DHT22;26324;52.040;11.528;2022-12-05T06:12:51;2.10;93.10
40622;DHT22;26324;52.040;11.528;2022-12-05T06:15:17;2.10;93.10
40622;DHT22;26324;52.040;11.528;2022-12-05T06:17:42;2.10;93.10
40622;DHT22;26324;52.040;11.528;2022-12-05T06:20:08;2.10;93.20
40622;DHT22;26324;52.040;11.528;2022-12-05T06:22:34;2.10;93.20
40622;DHT22;26324;52.040;11.528;2022-12-05T06:24:59;2.20;93.20
40622;DHT22;26324;52.040;11.528;2022-12-05T06:27:28;2.10;93.20
40622;DHT22;26324;52.040;11.528;2022-12-05T06:29:54;2.10;93.20
40622;DHT22;26324;52.040;11.528;2022-12-05T06:32:20;2.10;93.10
40622;DHT22;26324;52.040;11.528;2022-12-05T06:34:46;2.10;93.10
40622;DHT22;26324;52.040;11.528;2022-12-05T06:37:11;2.10;93.10
40622;DHT22;26324;52.040;11.528;2022-12-05T06:39:37;2.20;93.20
40622;DHT22;26324;52.040;11.528;2022-12-05T06:42:03;2.20;93.20
40622;DHT22;26324;52.040;11.528;2022-12-05T06:44:29;2.10;93.10
40622;DHT22;26324;52.040;11.528;2022-12-05T06:46:54;2.20;93.20
40622;DHT22;26324;52.040;11.528;2022-12-05T06:49:21;2.20;93.20
40622;DHT22;26324;52.040;11.528;2022-12-05T06:51:47;2.10;93.10
40622;DHT22;26324;52.040;11.528;2022-12-05T06:54:13;2.10;93.10
40622;DHT22;26324;52.040;11.528;2022-12-05T06:56:39;2.10;93.20
40622;DHT22;26324;52.040;11.528;2022-12-05T06:59:05;2.10;93.20
40622;DHT22;26324;52.040;11.528;2022-12-05T07:01:31;2.10;93.20
40622;DHT22;26324;52.040;11.528;2022-12-05T07:04:32;2.10;93.20
40622;DHT22;26324;52.040;11.528;2022-12-05T07:06:58;2.20;93.30
40622;DHT22;26324;52.040;11.528;2022-12-05T07:09:26;2.20;93.30
40622;DHT22;26324;52.040;11.528;2022-12-05T07:12:15;2.20;93.30
40622;DHT22;26324;52.040;11.528;2022-12-05T07:14:41;2.30;93.30
40622;DHT22;26324;52.040;11.528;2022-12-05T07:17:07;2.30;93.20
40622;DHT22;26324;52.040;11.528;2022-12-05T07:19:33;2.30;93.20
40622;DHT22;26324;52.040;11.528;2022-12-05T07:21:59;2.30;93.10
40622;DHT22;26324;52.040;11.528;2022-12-05T07:24:25;2.30;93.20
40622;DHT22;26324;52.040;11.528;2022-12-05T07:26:50;2.30;93.20
40622;DHT22;26324;52.040;11.528;2022-12-05T07:29:16;2.30;93.20
40622;DHT22;26324;52.040;11.528;2022-12-05T07:31:41;2.30;93.20
40622;DHT22;26324;52.040;11.528;2022-12-05T07:34:07;2.30;93.20
40622;DHT22;26324;52.040;11.528;2022-12-05T07:36:33;2.40;93.20
40622;DHT22;26324;52.040;11.528;2022-12-05T07:38:59;2.40;93.10
40622;DHT22;26324;52.040;11.528;2022-12-05T07:41:27;2.40;93.00
40622;DHT22;26324;52.040;11.528;2022-12-05T07:43:54;2.40;93.10
40622;DHT22;26324;52.040;11.528;2022-12-05T07:46:20;2.40;93.10
40622;DHT22;26324;52.040;11.528;2022-12-05T07:48:46;2.40;93.10
40622;DHT22;26324;52.040;11.528;2022-12-05T07:51:12;2.40;93.00
40622;DHT22;26324;52.040;11.528;2022-12-05T07:53:38;2.50;93.20
40622;DHT22;26324;52.040;11.528;2022-12-05T07:56:06;2.50;93.20
40622;DHT22;26324;52.040;11.528;2022-12-05T07:58:33;2.50;93.10
40622;DHT22;26324;52.040;11.528;2022-12-05T08:01:10;2.50;93.00
40622;DHT22;26324;52.040;11.528;2022-12-05T08:03:36;2.50;93.00
40622;DHT22;26324;52.040;11.528;2022-12-05T08:06:04;2.50;93.10
40622;DHT22;26324;52.040;11.528;2022-12-05T08:08:30;2.50;93.10
40622;DHT22;26324;52.040;11.528;2022-12-05T08:10:55;2.50;93.00
40622;DHT22;26324;52.040;11.528;2022-12-05T08:13:21;2.40;93.10
40622;DHT22;26324;52.040;11.528;2022-12-05T08:15:47;2.50;93.20
40622;DHT22;26324;52.040;11.528;2022-12-05T08:18:12;2.50;93.20
40622;DHT22;26324;52.040;11.528;2022-12-05T08:20:38;2.60;93.20
40622;DHT22;26324;52.040;11.528;2022-12-05T08:23:03;2.50;93.10
40622;DHT22;26324;52.040;11.528;2022-12-05T08:25:29;2.50;93.20
40622;DHT22;26324;52.040;11.528;2022-12-05T08:27:54;2.60;93.30
40622;DHT22;26324;52.040;11.528;2022-12-05T08:30:20;2.60;93.30
40622;DHT22;26324;52.040;11.528;2022-12-05T08:32:46;2.70;93.30
40622;DHT22;26324;52.040;11.528;2022-12-05T08:35:11;2.80;93.30
40622;DHT22;26324;52.040;11.528;2022-12-05T08:37:37;2.80;93.20
40622;DHT22;26324;52.040;11.528;2022-12-05T08:40:03;2.80;93.10
40622;DHT22;26324;52.040;11.528;2022-12-05T08:42:29;2.80;93.20
40622;DHT22;26324;52.040;11.528;2022-12-05T08:44:54;2.80;93.10
40622;DHT22;26324;52.040;11.528;2022-12-05T08:47:20;2.90;93.20
40622;DHT22;26324;52.040;11.528;2022-12-05T08:49:46;2.80;93.10
40622;DHT22;26324;52.040;11.528;2022-12-05T08:52:11;2.90;93.20
40622;DHT22;26324;52.040;11.528;2022-12-05T08:54:37;2.90;93.20
40622;DHT22;26324;52.040;11.528;2022-12-05T08:57:03;3.00;93.30
40622;DHT22;26324;52.040;11.528;2022-12-05T08:59:28;3.00;93.20
40622;DHT22;26324;52.040;11.528;2022-12-05T09:01:54;3.00;93.30
40622;DHT22;26324;52.040;11.528;2022-12-05T09:04:19;3.00;93.20
40622;DHT22;26324;52.040;11.528;2022-12-05T09:06:45;3.00;93.10
40622;DHT22;26324;52.040;11.528;2022-12-05T09:09:11;3.10;93.10
40622;DHT22;26324;52.040;11.528;2022-12-05T09:11:42;3.00;93.00
40622;DHT22;26324;52.040;11.528;2022-12-05T09:14:11;3.00;93.00
40622;DHT22;26324;52.040;11.528;2022-12-05T09:16:38;3.00;93.00
40622;DHT22;26324;52.040;11.528;2022-12-05T09:19:04;3.00;93.00
40622;DHT22;26324;52.040;11.528;2022-12-05T09:21:30;3.10;92.90
40622;DHT22;26324;52.040;11.528;2022-12-05T09:23:59;3.10;92.80
40622;DHT22;26324;52.040;11.528;2022-12-05T09:26:26;3.10;92.70
40622;DHT22;26324;52.040;11.528;2022-12-05T09:28:52;3.00;92.70
40622;DHT22;26324;52.040;11.528;2022-12-05T09:31:20;3.10;92.80
40622;DHT22;26324;52.040;11.528;2022-12-05T09:33:47;3.10;92.80
40622;DHT22;26324;52.040;11.528;2022-12-05T09:36:22;3.10;92.80
40622;DHT22;26324;52.040;11.528;2022-12-05T09:38:48;3.10;92.70
40622;DHT22;26324;52.040;11.528;2022-12-05T09:41:28;3.10;92.80
40622;DHT22;26324;52.040;11.528;2022-12-05T09:47:19;3.10;92.80
40622;DHT22;26324;52.040;11.528;2022-12-05T09:49:54;3.20;92.90
40622;DHT22;26324;52.040;11.528;2022-12-05T09:52:27;3.30;92.80
40622;DHT22;26324;52.040;11.528;2022-12-05T09:54:54;3.40;92.90
40622;DHT22;26324;52.040;11.528;2022-12-05T09:57:33;3.50;92.80
40622;DHT22;26324;52.040;11.528;2022-12-05T10:00:00;3.60;93.00
40622;DHT22;26324;52.040;11.528;2022-12-05T10:02:51;3.60;92.90
40622;DHT22;26324;52.040;11.528;2022-12-05T10:05:26;3.70;92.90
40622;DHT22;26324;52.040;11.528;2022-12-05T10:11:04;3.90;92.90
40622;DHT22;26324;52.040;11.528;2022-12-05T10:14:36;4.00;92.70
40622;DHT22;26324;52.040;11.528;2022-12-05T10:16:47;4.00;92.50
40622;DHT22;26324;52.040;11.528;2022-12-05T10:19:21;4.00;92.10
40622;DHT22;26324;52.040;11.528;2022-12-05T10:21:56;3.80;92.00
40622;DHT22;26324;52.040;11.528;2022-12-05T10:24:36;3.70;92.10
40622;DHT22;26324;52.040;11.528;2022-12-05T10:27:06;3.70;92.20
40622;DHT22;26324;52.040;11.528;2022-12-05T10:29:37;3.70;92.20
40622;DHT22;26324;52.040;11.528;2022-12-05T10:34:41;3.50;92.10
40622;DHT22;26324;52.040;11.528;2022-12-05T10:37:21;3.40;92.20
40622;DHT22;26324;52.040;11.528;2022-12-05T10:39:48;3.30;92.30
40622;DHT22;26324;52.040;11.528;2022-12-05T10:42:18;3.30;92.40
40622;DHT22;26324;52.040;11.528;2022-12-05T10:44:56;3.10;92.30
40622;DHT22;26324;52.040;11.528;2022-12-05T10:47:23;3.10;92.50
40622;DHT22;26324;52.040;11.528;2022-12-05T10:49:49;3.10;92.50
40622;DHT22;26324;52.040;11.528;2022-12-05T10:52:15;3.00;92.50
40622;DHT22;26324;52.040;11.528;2022-12-05T10:54:50;2.80;92.70
40622;DHT22;26324;52.040;11.528;2022-12-05T10:57:24;2.80;92.80
40622;DHT22;26324;52.040;11.528;2022-12-05T10:59:51;2.80;92.90
40622;DHT22;26324;52.040;11.528;2022-12-05T11:02:28;2.80;92.90
40622;DHT22;26324;52.040;11.528;2022-12-05T11:04:54;2.80;92.90
40622;DHT22;26324;52.040;11.528;2022-12-05T11:09:49;2.90;93.00
40622;DHT22;26324;52.040;11.528;2022-12-05T11:12:18;2.80;92.80
40622;DHT22;26324;52.040;11.528;2022-12-05T11:15:04;2.70;92.90
40622;DHT22;26324;52.040;11.528;2022-12-05T11:17:36;2.60;92.90
40622;DHT22;26324;52.040;11.528;2022-12-05T11:22:49;2.50;93.20
40622;DHT22;26324;52.040;11.528;2022-12-05T11:25:27;2.50;93.30
40622;DHT22;26324;52.040;11.528;2022-12-05T11:27:57;2.60;93.30
40622;DHT22;26324;52.040;11.528;2022-12-05T11:30:26;2.60;93.20
40622;DHT22;26324;52.040;11.528;2022-12-05T11:33:18;2.60;93.10
40622;DHT22;26324;52.040;11.528;2022-12-05T11:35:45;2.60;93.20
40622;DHT22;26324;52.040;11.528;2022-12-05T11:38:11;2.60;93.20
40622;DHT22;26324;52.040;11.528;2022-12-05T11:40:54;2.50;93.20
40622;DHT22;26324;52.040;11.528;2022-12-05T11:52:21;2.60;93.50
40622;DHT22;26324;52.040;11.528;2022-12-05T11:58:06;2.50;93.40
40622;DHT22;26324;52.040;11.528;2022-12-05T12:06:07;2.40;93.40
40622;DHT22;26324;52.040;11.528;2022-12-05T12:25:30;2.30;93.50
40622;DHT22;26324;52.040;11.528;2022-12-05T12:28:16;2.30;93.60
40622;DHT22;26324;52.040;11.528;2022-12-05T12:33:33;2.50;93.60
40622;DHT22;26324;52.040;11.528;2022-12-05T12:36:14;2.40;93.60
40622;DHT22;26324;52.040;11.528;2022-12-05T12:39:07;2.50;93.60
40622;DHT22;26324;52.040;11.528;2022-12-05T12:42:05;2.60;93.30
40622;DHT22;26324;52.040;11.528;2022-12-05T12:50:17;2.50;93.40
40622;DHT22;26324;52.040;11.528;2022-12-05T12:55:49;2.50;93.40
40622;DHT22;26324;52.040;11.528;2022-12-05T12:58:50;2.50;93.40
40622;DHT22;26324;52.040;11.528;2022-12-05T13:06:43;2.50;93.40
40622;DHT22;26324;52.040;11.528;2022-12-05T13:09:21;2.50;93.30
40622;DHT22;26324;52.040;11.528;2022-12-05T13:11:48;2.40;93.30
40622;DHT22;26324;52.040;11.528;2022-12-05T13:14:17;2.30;93.30
40622;DHT22;26324;52.040;11.528;2022-12-05T13:16:50;2.30;93.50
40622;DHT22;26324;52.040;11.528;2022-12-05T13:19:36;2.40;93.60
40622;DHT22;26324;52.040;11.528;2022-12-05T13:22:06;2.40;93.50
40622;DHT22;26324;52.040;11.528;2022-12-05T13:24:32;2.50;93.70
40622;DHT22;26324;52.040;11.528;2022-12-05T13:27:07;2.60;93.60
40622;DHT22;26324;52.040;11.528;2022-12-05T13:29:38;2.70;93.60
40622;DHT22;26324;52.040;11.528;2022-12-05T13:32:05;2.70;93.40
40622;DHT22;26324;52.040;11.528;2022-12-05T13:34:48;2.60;93.40
40622;DHT22;26324;52.040;11.528;2022-12-05T13:37:25;2.70;93.40
40622;DHT22;26324;52.040;11.528;2022-12-05T13:43:11;2.60;93.30
40622;DHT22;26324;52.040;11.528;2022-12-05T13:45:38;2.60;93.30
40622;DHT22;26324;52.040;11.528;2022-12-05T13:48:25;2.70;93.30
40622;DHT22;26324;52.040;11.528;2022-12-05T13:53:41;2.50;93.40
40622;DHT22;26324;52.040;11.528;2022-12-05T13:59:12;2.50;93.40
40622;DHT22;26324;52.040;11.528;2022-12-05T14:01:44;2.50;93.40
40622;DHT22;26324;52.040;11.528;2022-12-05T14:04:44;2.50;93.40
40622;DHT22;26324;52.040;11.528;2022-12-05T14:07:10;2.50;93.40
40622;DHT22;26324;52.040;11.528;2022-12-05T14:09:53;2.60;93.50
40622;DHT22;26324;52.040;11.528;2022-12-05T14:14:58;2.60;93.40
40622;DHT22;26324;52.040;11.528;2022-12-05T14:17:41;2.50;93.30
40622;DHT22;26324;52.040;11.528;2022-12-05T14:26:07;2.50;93.40
40622;DHT22;26324;52.040;11.528;2022-12-05T14:34:27;2.40;93.30
40622;DHT22;26324;52.040;11.528;2022-12-05T14:42:00;2.50;93.40
40622;DHT22;26324;52.040;11.528;2022-12-05T14:44:28;2.40;93.30
40622;DHT22;26324;52.040;11.528;2022-12-05T14:46:59;2.40;93.40
40622;DHT22;26324;52.040;11.528;2022-12-05T14:49:48;2.40;93.40
40622;DHT22;26324;52.040;11.528;2022-12-05T14:52:21;2.40;93.40
40622;DHT22;26324;52.040;11.528;2022-12-05T14:54:48;2.40;93.50
40622;DHT22;26324;52.040;11.528;2022-12-05T14:57:15;2.40;93.30
40622;DHT22;26324;52.040;11.528;2022-12-05T15:00:01;2.20;93.40
40622;DHT22;26324;52.040;11.528;2022-12-05T15:02:33;2.10;93.50
40622;DHT22;26324;52.040;11.528;2022-12-05T15:05:14;2.20;93.60
40622;DHT22;26324;52.040;11.528;2022-12-05T15:07:44;2.20;93.60
40622;DHT22;26324;52.040;11.528;2022-12-05T15:10:36;2.30;93.70
40622;DHT22;26324;52.040;11.528;2022-12-05T15:13:14;2.30;93.60
40622;DHT22;26324;52.040;11.528;2022-12-05T15:15:44;2.20;93.60
40622;DHT22;26324;52.040;11.528;2022-12-05T15:18:47;2.10;93.60
40622;DHT22;26324;52.040;11.528;2022-12-05T15:21:21;2.20;93.80
40622;DHT22;26324;52.040;11.528;2022-12-05T15:23:56;2.20;93.80
40622;DHT22;26324;52.040;11.528;2022-12-05T15:26:25;2.10;93.80
40622;DHT22;26324;52.040;11.528;2022-12-05T15:29:00;2.10;93.80
40622;DHT22;26324;52.040;11.528;2022-12-05T15:31:31;2.10;93.90
40622;DHT22;26324;52.040;11.528;2022-12-05T15:34:44;2.10;93.80
40622;DHT22;26324;52.040;11.528;2022-12-05T15:37:12;2.10;93.80
40622;DHT22;26324;52.040;11.528;2022-12-05T15:42:45;2.00;93.90
40622;DHT22;26324;52.040;11.528;2022-12-05T15:47:37;2.10;93.90
40622;DHT22;26324;52.040;11.528;2022-12-05T15:50:03;2.00;93.80
40622;DHT22;26324;52.040;11.528;2022-12-05T15:52:38;2.00;93.90
40622;DHT22;26324;52.040;11.528;2022-12-05T15:55:11;1.90;93.90
40622;DHT22;26324;52.040;11.528;2022-12-05T15:57:49;2.00;94.00
40622;DHT22;26324;52.040;11.528;2022-12-05T16:00:18;2.00;94.00
40622;DHT22;26324;52.040;11.528;2022-12-05T16:02:48;2.00;94.00
40622;DHT22;26324;52.040;11.528;2022-12-05T16:07:45;2.00;94.00
40622;DHT22;26324;52.040;11.528;2022-12-05T16:10:13;2.00;93.90
40622;DHT22;26324;52.040;11.528;2022-12-05T16:12:40;1.90;94.00
40622;DHT22;26324;52.040;11.528;2022-12-05T16:15:15;1.90;93.90
40622;DHT22;26324;52.040;11.528;2022-12-05T16:17:45;1.80;94.00
40622;DHT22;26324;52.040;11.528;2022-12-05T16:22:52;2.00;94.10
40622;DHT22;26324;52.040;11.528;2022-12-05T16:25:23;2.00;94.00
40622;DHT22;26324;52.040;11.528;2022-12-05T16:27:57;2.00;93.90
40622;DHT22;26324;52.040;11.528;2022-12-05T16:30:23;2.00;93.90
40622;DHT22;26324;52.040;11.528;2022-12-05T16:33:03;2.00;93.80
40622;DHT22;26324;52.040;11.528;2022-12-05T16:35:41;2.00;93.80
40622;DHT22;26324;52.040;11.528;2022-12-05T16:40:49;1.90;93.70
40622;DHT22;26324;52.040;11.528;2022-12-05T16:45:50;1.90;93.70
40622;DHT22;26324;52.040;11.528;2022-12-05T16:48:28;1.80;93.70
40622;DHT22;26324;52.040;11.528;2022-12-05T16:53:35;1.80;93.70
40622;DHT22;26324;52.040;11.528;2022-12-05T16:56:03;1.80;93.80
40622;DHT22;26324;52.040;11.528;2022-12-05T16:58:30;1.80;93.80
40622;DHT22;26324;52.040;11.528;2022-12-05T17:01:05;1.80;93.80
40622;DHT22;26324;52.040;11.528;2022-12-05T17:03:32;1.80;93.70
40622;DHT22;26324;52.040;11.528;2022-12-05T17:05:58;1.80;93.80
40622;DHT22;26324;52.040;11.528;2022-12-05T17:08:25;1.80;93.80
40622;DHT22;26324;52.040;11.528;2022-12-05T17:10:51;1.80;93.70
40622;DHT22;26324;52.040;11.528;2022-12-05T17:13:18;1.70;93.70
40622;DHT22;26324;52.040;11.528;2022-12-05T17:15:44;1.80;93.80
40622;DHT22;26324;52.040;11.528;2022-12-05T17:18:15;1.80;93.70
40622;DHT22;26324;52.040;11.528;2022-12-05T17:20:43;1.90;93.70
40622;DHT22;26324;52.040;11.528;2022-12-05T17:23:13;1.90;93.70
40622;DHT22;26324;52.040;11.528;2022-12-05T17:25:42;1.90;93.70
40622;DHT22;26324;52.040;11.528;2022-12-05T17:28:08;1.90;93.60
40622;DHT22;26324;52.040;11.528;2022-12-05T17:30:34;2.00;93.50
40622;DHT22;26324;52.040;11.528;2022-12-05T17:32:59;1.90;93.50
40622;DHT22;26324;52.040;11.528;2022-12-05T17:35:27;1.90;93.50
40622;DHT22;26324;52.040;11.528;2022-12-05T17:37:53;1.90;93.50
40622;DHT22;26324;52.040;11.528;2022-12-05T17:40:19;2.00;93.60
40622;DHT22;26324;52.040;11.528;2022-12-05T17:42:45;2.00;93.60
40622;DHT22;26324;52.040;11.528;2022-12-05T17:45:12;2.00;93.50
40622;DHT22;26324;52.040;11.528;2022-12-05T17:47:37;2.00;93.40
40622;DHT22;26324;52.040;11.528;2022-12-05T17:50:04;2.00;93.30
40622;DHT22;26324;52.040;11.528;2022-12-05T17:52:32;1.90;93.30
40622;DHT22;26324;52.040;11.528;2022-12-05T17:54:57;1.90;93.40
40622;DHT22;26324;52.040;11.528;2022-12-05T17:57:23;1.90;93.40
40622;DHT22;26324;52.040;11.528;2022-12-05T17:59:48;1.90;93.50
40622;DHT22;26324;52.040;11.528;2022-12-05T18:02:14;1.90;93.40
40622;DHT22;26324;52.040;11.528;2022-12-05T18:04:41;1.80;93.40
40622;DHT22;26324;52.040;11.528;2022-12-05T18:07:07;1.90;93.40
40622;DHT22;26324;52.040;11.528;2022-12-05T18:09:33;1.90;93.40
40622;DHT22;26324;52.040;11.528;2022-12-05T18:11:58;1.90;93.50
40622;DHT22;26324;52.040;11.528;2022-12-05T18:14:24;1.80;93.50
40622;DHT22;26324;52.040;11.528;2022-12-05T18:16:51;1.90;93.40
40622;DHT22;26324;52.040;11.528;2022-12-05T18:19:17;1.80;93.40
40622;DHT22;26324;52.040;11.528;2022-12-05T18:21:43;1.80;93.40
40622;DHT22;26324;52.040;11.528;2022-12-05T18:24:09;1.90;93.50
40622;DHT22;26324;52.040;11.528;2022-12-05T18:26:35;1.90;93.50
40622;DHT22;26324;52.040;11.528;2022-12-05T18:29:00;1.90;93.40
40622;DHT22;26324;52.040;11.528;2022-12-05T18:31:26;2.00;93.50
40622;DHT22;26324;52.040;11.528;2022-12-05T18:33:52;1.90;93.50